Contact Info

Augusta Flying Club, Inc

KDNL 171553Z AUTO 00000KT 10SM OVC075 28/22 A3017 RMK AO2 SLP210 T02830217


TAF AMD KDNL 171514Z 1715/1812 08005KT P6SM VCSH SCT035 BKN050 FM180000 VRB03KT P6SM SCT015 BKN035 FM180900 00000KT P6SM FEW025

info@augustaflyingclub.com

Send us a message